createdAt,value
2022-11-13T00:00:17.527Z,92
2022-11-13T00:01:16.996Z,92
2022-11-13T00:02:17.660Z,92
2022-11-13T00:03:17.244Z,92
2022-11-13T00:04:17.437Z,92
2022-11-13T00:05:17.053Z,92
2022-11-13T00:06:17.221Z,92
2022-11-13T00:07:17.240Z,92
2022-11-13T00:08:17.067Z,92
2022-11-13T00:09:17.462Z,92
2022-11-13T00:11:17.451Z,92
2022-11-13T00:13:17.131Z,92
2022-11-13T00:14:17.536Z,92
2022-11-13T00:15:16.911Z,92
2022-11-13T00:16:17.318Z,92
2022-11-13T00:17:17.591Z,92
2022-11-13T00:18:16.303Z,92
2022-11-13T00:19:17.815Z,92
2022-11-13T00:20:17.636Z,92
2022-11-13T00:22:17.695Z,92
2022-11-13T00:23:17.134Z,92
2022-11-13T00:24:16.998Z,92
2022-11-13T00:25:16.992Z,92
2022-11-13T00:26:17.557Z,92
2022-11-13T00:27:17.800Z,92
2022-11-13T00:28:17.012Z,92
2022-11-13T00:29:17.821Z,92
2022-11-13T00:30:23.842Z,92
2022-11-13T00:31:17.391Z,92
2022-11-13T00:32:17.746Z,92
2022-11-13T00:36:17.498Z,92
2022-11-13T00:37:16.868Z,92
2022-11-13T00:38:17.243Z,92
2022-11-13T00:39:17.310Z,92
2022-11-13T00:40:17.693Z,92
2022-11-13T00:41:17.314Z,92
2022-11-13T00:42:17.172Z,92
2022-11-13T00:43:17.538Z,92
2022-11-13T00:44:16.378Z,92
2022-11-13T00:45:17.585Z,92
2022-11-13T00:47:17.360Z,92
2022-11-13T00:48:17.226Z,92
2022-11-13T00:49:17.546Z,92
2022-11-13T00:50:17.031Z,92
2022-11-13T00:51:17.172Z,92
2022-11-13T00:52:17.692Z,92
2022-11-13T00:53:24.137Z,92
2022-11-13T00:54:17.014Z,92
2022-11-13T00:55:17.765Z,92
2022-11-13T00:56:17.127Z,92
2022-11-13T00:57:17.455Z,92
2022-11-13T00:58:17.798Z,92
2022-11-13T00:59:16.893Z,92
2022-11-13T01:00:17.459Z,92
2022-11-13T01:01:17.670Z,92
2022-11-13T01:02:17.607Z,92
2022-11-13T01:04:17.774Z,92
2022-11-13T01:05:17.278Z,92
2022-11-13T01:06:17.635Z,92
2022-11-13T01:07:18.197Z,92
2022-11-13T01:08:17.020Z,92
2022-11-13T01:10:17.630Z,92
2022-11-13T01:11:17.412Z,92
2022-11-13T01:12:16.850Z,92
2022-11-13T01:13:17.468Z,92
2022-11-13T01:14:17.780Z,92
2022-11-13T01:15:17.230Z,92
2022-11-13T01:16:17.350Z,92
2022-11-13T01:17:17.476Z,92
2022-11-13T01:18:17.576Z,92
2022-11-13T01:19:17.281Z,92
2022-11-13T01:22:17.545Z,92
2022-11-13T01:23:17.603Z,92
2022-11-13T01:24:17.808Z,92
2022-11-13T01:25:17.237Z,92
2022-11-13T01:26:17.659Z,92
2022-11-13T01:27:17.643Z,92
2022-11-13T01:28:16.895Z,92
2022-11-13T01:29:17.309Z,92
2022-11-13T01:30:17.825Z,92
2022-11-13T01:31:16.933Z,92
2022-11-13T01:32:17.347Z,92
2022-11-13T01:34:17.512Z,92
2022-11-13T01:35:16.476Z,92
2022-11-13T01:36:17.289Z,92
2022-11-13T01:37:17.303Z,92
2022-11-13T01:40:17.771Z,92
2022-11-13T01:41:24.113Z,92
2022-11-13T01:42:17.685Z,92
2022-11-13T01:43:17.090Z,92
2022-11-13T01:44:17.471Z,92
2022-11-13T01:45:17.732Z,92
2022-11-13T01:46:17.160Z,92
2022-11-13T01:47:17.284Z,92
2022-11-13T01:48:17.924Z,92
2022-11-13T01:49:17.145Z,92
2022-11-13T01:50:17.432Z,92
2022-11-13T01:51:16.920Z,92
2022-11-13T01:52:17.376Z,92
2022-11-13T01:53:17.634Z,92
2022-11-13T01:54:17.058Z,92
2022-11-13T01:57:17.303Z,92
2022-11-13T01:58:17.456Z,92
2022-11-13T01:59:17.786Z,91
2022-11-13T02:00:16.783Z,91
2022-11-13T02:01:16.964Z,91
2022-11-13T02:02:17.229Z,91
2022-11-13T02:03:16.674Z,92
2022-11-13T02:04:17.277Z,92
2022-11-13T02:05:17.146Z,92
2022-11-13T02:06:17.488Z,92
2022-11-13T02:07:17.245Z,92
2022-11-13T02:08:17.810Z,92
2022-11-13T02:09:16.936Z,92
2022-11-13T02:10:17.389Z,92
2022-11-13T02:11:17.750Z,92
2022-11-13T02:12:16.971Z,92
2022-11-13T02:13:17.344Z,92
2022-11-13T02:14:17.639Z,92
2022-11-13T02:15:17.716Z,92
2022-11-13T02:16:17.150Z,91
2022-11-13T02:17:17.343Z,92
2022-11-13T02:18:17.874Z,92
2022-11-13T02:19:17.187Z,91
2022-11-13T02:20:17.625Z,92
2022-11-13T02:21:16.883Z,92
2022-11-13T02:22:17.571Z,92
2022-11-13T02:24:17.669Z,92
2022-11-13T02:25:16.989Z,92
2022-11-13T02:26:18.370Z,92
2022-11-13T02:27:17.248Z,92
2022-11-13T02:28:17.572Z,92
2022-11-13T02:29:16.590Z,92
2022-11-13T02:30:29.288Z,92
2022-11-13T02:31:16.193Z,92
2022-11-13T02:32:17.350Z,92
2022-11-13T02:33:17.686Z,92
2022-11-13T02:34:17.529Z,92
2022-11-13T02:35:17.163Z,92
2022-11-13T02:36:18.011Z,92
2022-11-13T02:37:17.184Z,92
2022-11-13T02:38:17.303Z,92
2022-11-13T02:39:17.063Z,92
2022-11-13T02:40:16.896Z,92
2022-11-13T02:41:17.921Z,92
2022-11-13T02:42:17.070Z,92
2022-11-13T02:44:16.881Z,92
2022-11-13T02:45:17.361Z,92
2022-11-13T02:46:17.074Z,92
2022-11-13T02:47:17.523Z,92
2022-11-13T02:48:17.744Z,92
2022-11-13T02:49:17.129Z,92
2022-11-13T02:50:17.507Z,92
2022-11-13T02:51:17.623Z,92
2022-11-13T02:52:18.161Z,92
2022-11-13T02:53:17.244Z,92
2022-11-13T02:55:16.945Z,92
2022-11-13T02:56:17.424Z,92
2022-11-13T02:57:17.736Z,92
2022-11-13T02:58:17.782Z,92
2022-11-13T02:59:17.386Z,92
2022-11-13T03:00:20.457Z,92
2022-11-13T03:01:16.722Z,92
2022-11-13T03:02:17.403Z,92
2022-11-13T03:03:56.362Z,92
2022-11-13T03:04:17.103Z,92
2022-11-13T03:05:19.297Z,92
2022-11-13T03:06:17.472Z,92
2022-11-13T03:07:17.648Z,92
2022-11-13T03:08:17.712Z,92
2022-11-13T03:09:16.851Z,92
2022-11-13T03:10:17.878Z,92
2022-11-13T03:11:17.112Z,92
2022-11-13T03:12:17.687Z,92
2022-11-13T03:13:16.996Z,92
2022-11-13T03:14:17.151Z,92
2022-11-13T03:15:17.436Z,92
2022-11-13T03:16:17.719Z,92
2022-11-13T03:17:17.083Z,92
2022-11-13T03:18:17.302Z,92
2022-11-13T03:19:17.672Z,92
2022-11-13T03:20:17.136Z,92
2022-11-13T03:21:16.893Z,92
2022-11-13T03:22:16.016Z,92
2022-11-13T03:23:17.725Z,92
2022-11-13T03:24:17.726Z,92
2022-11-13T03:25:17.625Z,92
2022-11-13T03:26:17.565Z,92
2022-11-13T03:27:17.512Z,92
2022-11-13T03:28:17.984Z,92
2022-11-13T03:29:17.213Z,92
2022-11-13T03:30:17.442Z,92
2022-11-13T03:31:16.322Z,92
2022-11-13T03:32:17.926Z,92
2022-11-13T03:33:17.091Z,92
2022-11-13T03:34:17.427Z,92
2022-11-13T03:35:17.696Z,92
2022-11-13T03:36:16.967Z,92
2022-11-13T03:37:17.392Z,92
2022-11-13T03:38:16.923Z,92
2022-11-13T03:39:17.307Z,92
2022-11-13T03:40:17.454Z,92
2022-11-13T03:41:17.768Z,92
2022-11-13T03:42:17.166Z,92
2022-11-13T03:45:17.934Z,92
2022-11-13T03:46:17.399Z,92
2022-11-13T03:47:16.692Z,92
2022-11-13T03:48:16.905Z,92
2022-11-13T03:49:17.141Z,92
2022-11-13T03:50:16.931Z,92
2022-11-13T03:51:17.657Z,92
2022-11-13T03:52:16.931Z,92
2022-11-13T03:53:17.509Z,92
2022-11-13T03:54:16.956Z,92
2022-11-13T03:56:17.911Z,92
2022-11-13T03:57:17.866Z,92
2022-11-13T03:58:17.272Z,92
2022-11-13T03:59:17.286Z,92
2022-11-13T04:00:17.663Z,92
2022-11-13T04:01:17.762Z,92
2022-11-13T04:02:17.252Z,92
2022-11-13T04:03:17.291Z,92
2022-11-13T04:04:17.573Z,92
2022-11-13T04:06:17.951Z,92
2022-11-13T04:07:17.227Z,92
2022-11-13T04:08:17.279Z,92
2022-11-13T04:09:17.690Z,92
2022-11-13T04:10:17.438Z,92
2022-11-13T04:11:17.856Z,92
2022-11-13T04:12:17.022Z,92
2022-11-13T04:13:17.350Z,92
2022-11-13T04:14:17.900Z,92
2022-11-13T04:15:16.783Z,92
2022-11-13T04:16:16.976Z,92
2022-11-13T04:17:16.174Z,92
2022-11-13T04:18:17.061Z,92
2022-11-13T04:19:17.353Z,92
2022-11-13T04:20:17.728Z,92
2022-11-13T04:21:17.070Z,92
2022-11-13T04:22:17.079Z,92
2022-11-13T04:23:16.978Z,92
2022-11-13T04:24:17.277Z,92
2022-11-13T04:25:17.799Z,92
2022-11-13T04:26:17.127Z,92
2022-11-13T04:27:17.669Z,92
2022-11-13T04:28:17.855Z,92
2022-11-13T04:29:17.248Z,92
2022-11-13T04:31:17.338Z,92
2022-11-13T04:32:17.562Z,92
2022-11-13T04:33:17.126Z,92
2022-11-13T04:34:17.703Z,92
2022-11-13T04:35:18.077Z,92
2022-11-13T04:36:17.267Z,92
2022-11-13T04:37:17.584Z,92
2022-11-13T04:38:16.987Z,92
2022-11-13T04:39:17.317Z,92
2022-11-13T04:41:17.019Z,92
2022-11-13T04:42:17.307Z,92
2022-11-13T04:43:17.326Z,92
2022-11-13T04:44:17.425Z,92
2022-11-13T04:45:17.492Z,92
2022-11-13T04:46:17.534Z,92
2022-11-13T04:47:17.777Z,92
2022-11-13T04:48:17.153Z,92
2022-11-13T04:49:17.826Z,92
2022-11-13T04:50:17.339Z,92
2022-11-13T04:51:17.633Z,92
2022-11-13T04:52:17.933Z,92
2022-11-13T04:53:16.906Z,92
2022-11-13T04:54:17.239Z,92
2022-11-13T04:55:17.705Z,92
2022-11-13T04:56:16.881Z,92
2022-11-13T04:58:17.573Z,92
2022-11-13T04:59:17.978Z,92
2022-11-13T05:00:17.051Z,92
2022-11-13T05:01:17.484Z,92
2022-11-13T05:03:17.317Z,92
2022-11-13T05:06:17.215Z,92
2022-11-13T05:07:17.829Z,92
2022-11-13T05:08:16.159Z,92
2022-11-13T05:09:17.158Z,92
2022-11-13T05:10:17.293Z,92
2022-11-13T05:11:17.492Z,92
2022-11-13T05:12:17.677Z,92
2022-11-13T05:13:17.650Z,92
2022-11-13T05:14:17.146Z,92
2022-11-13T05:17:17.658Z,92
2022-11-13T05:18:17.569Z,92
2022-11-13T05:20:17.868Z,92
2022-11-13T05:21:17.070Z,92
2022-11-13T05:22:17.505Z,92
2022-11-13T05:23:18.034Z,92
2022-11-13T05:24:16.985Z,92
2022-11-13T05:25:17.272Z,92
2022-11-13T05:26:17.593Z,92
2022-11-13T05:27:23.118Z,92
2022-11-13T05:28:17.475Z,92
2022-11-13T05:29:16.841Z,92
2022-11-13T05:30:17.116Z,92
2022-11-13T05:31:17.638Z,92
2022-11-13T05:32:17.673Z,92
2022-11-13T05:33:16.046Z,92
2022-11-13T05:34:17.475Z,92
2022-11-13T05:35:17.211Z,92
2022-11-13T05:36:17.046Z,92
2022-11-13T05:37:17.557Z,92
2022-11-13T05:38:17.940Z,92
2022-11-13T05:39:17.166Z,92
2022-11-13T05:40:17.439Z,92
2022-11-13T05:41:17.710Z,92
2022-11-13T05:42:16.944Z,92
2022-11-13T05:43:17.380Z,92
2022-11-13T05:44:17.360Z,92
2022-11-13T05:45:17.804Z,92
2022-11-13T05:46:17.402Z,92
2022-11-13T05:47:17.787Z,92
2022-11-13T05:48:17.022Z,92
2022-11-13T05:49:17.532Z,92
2022-11-13T05:50:16.896Z,92
2022-11-13T05:51:17.331Z,92
2022-11-13T05:52:17.570Z,92
2022-11-13T05:55:19.238Z,92
2022-11-13T05:56:16.563Z,92
2022-11-13T05:57:16.599Z,92
2022-11-13T05:58:16.336Z,92
2022-11-13T05:59:17.107Z,92
2022-11-13T06:00:16.197Z,92
2022-11-13T06:01:16.932Z,92
2022-11-13T06:02:18.008Z,92
2022-11-13T06:03:17.163Z,92
2022-11-13T06:04:17.910Z,92
2022-11-13T06:05:17.685Z,92
2022-11-13T06:06:17.332Z,92
2022-11-13T06:08:17.133Z,92
2022-11-13T06:09:17.597Z,92
2022-11-13T06:10:17.168Z,92
2022-11-13T06:11:18.080Z,92
2022-11-13T06:12:17.172Z,92
2022-11-13T06:13:17.480Z,92
2022-11-13T06:16:17.854Z,92
2022-11-13T06:17:17.142Z,92
2022-11-13T06:18:17.794Z,92
2022-11-13T06:19:17.214Z,92
2022-11-13T06:20:17.297Z,92
2022-11-13T06:21:17.207Z,92
2022-11-13T06:22:17.476Z,92
2022-11-13T06:23:15.994Z,92
2022-11-13T06:24:16.467Z,92
2022-11-13T06:25:17.687Z,92
2022-11-13T06:26:17.729Z,92
2022-11-13T06:27:17.362Z,92
2022-11-13T06:28:17.099Z,92
2022-11-13T06:29:17.196Z,92
2022-11-13T06:30:17.468Z,92
2022-11-13T06:31:17.319Z,92
2022-11-13T06:32:17.615Z,92
2022-11-13T06:33:17.238Z,92
2022-11-13T06:34:17.637Z,92
2022-11-13T06:35:17.816Z,92
2022-11-13T06:36:17.799Z,92
2022-11-13T06:39:17.563Z,92
2022-11-13T06:40:17.612Z,92
2022-11-13T06:41:16.989Z,92
2022-11-13T06:42:17.637Z,92
2022-11-13T06:43:18.114Z,92
2022-11-13T06:44:17.054Z,92
2022-11-13T06:45:17.006Z,92
2022-11-13T06:46:17.323Z,92
2022-11-13T06:47:16.164Z,92
2022-11-13T06:48:17.244Z,92
2022-11-13T06:50:17.463Z,92
2022-11-13T06:51:17.892Z,92
2022-11-13T06:52:17.535Z,92
2022-11-13T06:53:17.017Z,92
2022-11-13T06:54:17.958Z,92
2022-11-13T06:55:17.651Z,92
2022-11-13T06:56:16.405Z,92
2022-11-13T06:57:16.976Z,92
2022-11-13T06:58:17.961Z,92
2022-11-13T06:59:17.784Z,92
2022-11-13T07:00:17.250Z,92
2022-11-13T07:01:17.719Z,92
2022-11-13T07:02:17.319Z,92
2022-11-13T07:03:17.628Z,92
2022-11-13T07:04:16.231Z,92
2022-11-13T07:05:17.455Z,92
2022-11-13T07:06:17.856Z,92
2022-11-13T07:07:17.450Z,92
2022-11-13T07:08:17.518Z,92
2022-11-13T07:10:17.296Z,92
2022-11-13T07:11:17.706Z,92
2022-11-13T07:12:16.652Z,92
2022-11-13T07:13:16.454Z,92
2022-11-13T07:14:17.705Z,92
2022-11-13T07:17:17.238Z,92
2022-11-13T07:18:23.797Z,92
2022-11-13T07:19:17.962Z,92
2022-11-13T07:20:17.831Z,92
2022-11-13T07:22:16.996Z,92
2022-11-13T07:23:17.604Z,92
2022-11-13T07:24:22.954Z,92
2022-11-13T07:27:17.343Z,92
2022-11-13T07:28:17.324Z,92
2022-11-13T07:29:17.635Z,92
2022-11-13T07:31:17.773Z,92
2022-11-13T07:32:17.073Z,92
2022-11-13T07:33:17.370Z,92
2022-11-13T07:34:17.699Z,92
2022-11-13T07:35:17.122Z,92
2022-11-13T07:36:16.450Z,92
2022-11-13T07:37:16.434Z,92
2022-11-13T07:38:17.763Z,92
2022-11-13T07:39:17.258Z,92
2022-11-13T07:40:17.402Z,92
2022-11-13T07:41:17.476Z,92
2022-11-13T07:42:17.658Z,92
2022-11-13T07:43:17.111Z,92
2022-11-13T07:45:07.582Z,92
2022-11-13T07:46:17.397Z,92
2022-11-13T07:47:17.737Z,92
2022-11-13T07:48:17.235Z,92
2022-11-13T07:49:17.670Z,92
2022-11-13T07:50:17.870Z,92
2022-11-13T07:52:17.868Z,92
2022-11-13T07:53:17.187Z,92
2022-11-13T07:54:17.322Z,92
2022-11-13T07:55:17.778Z,93
2022-11-13T07:56:23.830Z,93
2022-11-13T07:57:17.271Z,93
2022-11-13T07:58:17.550Z,93
2022-11-13T07:59:17.124Z,93
2022-11-13T08:00:16.554Z,92
2022-11-13T08:01:17.848Z,92
2022-11-13T08:02:18.636Z,92
2022-11-13T08:03:17.594Z,92
2022-11-13T08:04:16.924Z,92
2022-11-13T08:06:17.390Z,92
2022-11-13T08:07:17.882Z,92
2022-11-13T08:08:17.463Z,92
2022-11-13T08:09:17.830Z,92
2022-11-13T08:10:17.386Z,92
2022-11-13T08:11:17.903Z,92
2022-11-13T08:12:17.005Z,92
2022-11-13T08:13:17.372Z,92
2022-11-13T08:14:17.541Z,92
2022-11-13T08:15:19.919Z,92
2022-11-13T08:16:17.800Z,92
2022-11-13T08:17:17.172Z,92
2022-11-13T08:18:17.650Z,92
2022-11-13T08:19:17.912Z,92
2022-11-13T08:20:17.181Z,92
2022-11-13T08:21:21.426Z,92
2022-11-13T08:22:17.740Z,92
2022-11-13T08:23:17.127Z,92
2022-11-13T08:24:16.269Z,92
2022-11-13T08:25:17.521Z,92
2022-11-13T08:26:17.792Z,92
2022-11-13T08:27:17.155Z,92
2022-11-13T08:28:19.659Z,92
2022-11-13T08:29:17.206Z,92
2022-11-13T08:30:17.752Z,92
2022-11-13T08:31:16.980Z,92
2022-11-13T08:32:17.340Z,92
2022-11-13T08:33:17.606Z,92
2022-11-13T08:34:17.251Z,92
2022-11-13T08:35:29.510Z,92
2022-11-13T08:36:17.847Z,92
2022-11-13T08:37:17.177Z,92
2022-11-13T08:38:17.464Z,92
2022-11-13T08:39:17.722Z,92
2022-11-13T08:40:17.598Z,92
2022-11-13T08:41:18.004Z,92
2022-11-13T08:42:17.352Z,92
2022-11-13T08:43:18.157Z,92
2022-11-13T08:44:16.948Z,92
2022-11-13T08:45:17.460Z,92
2022-11-13T08:47:17.288Z,92
2022-11-13T08:48:17.631Z,92
2022-11-13T08:49:17.348Z,92
2022-11-13T08:50:17.193Z,92
2022-11-13T08:51:17.974Z,92
2022-11-13T08:52:18.165Z,92
2022-11-13T08:53:17.601Z,91
2022-11-13T08:54:17.648Z,91
2022-11-13T08:55:17.024Z,91
2022-11-13T08:56:17.449Z,91
2022-11-13T08:57:17.597Z,91
2022-11-13T08:58:16.957Z,91
2022-11-13T09:00:17.227Z,91
2022-11-13T09:01:17.971Z,91
2022-11-13T09:02:17.226Z,91
2022-11-13T09:03:17.552Z,91
2022-11-13T09:04:18.064Z,91
2022-11-13T09:05:17.237Z,90
2022-11-13T09:06:17.760Z,90
2022-11-13T09:07:19.510Z,91
2022-11-13T09:08:17.291Z,91
2022-11-13T09:09:17.651Z,91
2022-11-13T09:11:17.257Z,91
2022-11-13T09:12:17.560Z,91
2022-11-13T09:13:16.977Z,91
2022-11-13T09:14:16.938Z,91
2022-11-13T09:15:20.298Z,91
2022-11-13T09:16:16.389Z,90
2022-11-13T09:17:16.934Z,90
2022-11-13T09:18:17.003Z,90
2022-11-13T09:19:17.390Z,90
2022-11-13T09:20:25.755Z,90
2022-11-13T09:21:17.656Z,90
2022-11-13T09:22:18.030Z,90
2022-11-13T09:23:17.362Z,90
2022-11-13T09:24:17.888Z,90
2022-11-13T09:25:17.317Z,90
2022-11-13T09:26:17.364Z,90
2022-11-13T09:27:17.783Z,90
2022-11-13T09:28:17.687Z,90
2022-11-13T09:29:17.047Z,90
2022-11-13T09:30:17.629Z,90
2022-11-13T09:31:17.267Z,90
2022-11-13T09:32:17.585Z,90
2022-11-13T09:33:18.003Z,90
2022-11-13T09:35:17.592Z,90
2022-11-13T09:36:17.566Z,90
2022-11-13T09:38:18.044Z,90
2022-11-13T09:39:17.636Z,90
2022-11-13T09:40:17.910Z,90
2022-11-13T09:42:17.640Z,89
2022-11-13T09:43:17.963Z,89
2022-11-13T09:44:17.080Z,89
2022-11-13T09:45:17.437Z,89
2022-11-13T09:46:17.434Z,89
2022-11-13T09:47:17.931Z,89
2022-11-13T09:48:17.142Z,89
2022-11-13T09:49:17.547Z,89
2022-11-13T09:50:17.905Z,89
2022-11-13T09:51:17.203Z,88
2022-11-13T09:52:17.652Z,88
2022-11-13T09:53:17.016Z,88
2022-11-13T09:54:17.399Z,88
2022-11-13T09:55:17.754Z,88
2022-11-13T09:56:17.941Z,88
2022-11-13T09:57:19.405Z,87
2022-11-13T09:58:17.764Z,87
2022-11-13T09:59:17.931Z,87
2022-11-13T10:00:17.335Z,87
2022-11-13T10:01:17.269Z,87
2022-11-13T10:02:16.649Z,87
2022-11-13T10:03:28.163Z,87
2022-11-13T10:04:20.407Z,87
2022-11-13T10:05:17.275Z,86
2022-11-13T10:06:16.930Z,86
2022-11-13T10:07:17.439Z,86
2022-11-13T10:08:17.472Z,86
2022-11-13T10:10:17.382Z,85
2022-11-13T10:11:17.402Z,85
2022-11-13T10:12:17.292Z,85
2022-11-13T10:13:17.938Z,85
2022-11-13T10:14:17.349Z,85
2022-11-13T10:15:17.559Z,85
2022-11-13T10:16:17.393Z,84
2022-11-13T10:17:17.773Z,84
2022-11-13T10:20:17.688Z,84
2022-11-13T10:21:17.101Z,83
2022-11-13T10:22:39.012Z,83
2022-11-13T10:23:17.809Z,83
2022-11-13T10:24:20.617Z,83
2022-11-13T10:25:16.526Z,83
2022-11-13T10:26:16.787Z,82
2022-11-13T10:27:17.205Z,82
2022-11-13T10:28:56.989Z,82
2022-11-13T10:30:16.175Z,82
2022-11-13T10:31:16.153Z,81
2022-11-13T10:32:17.427Z,81
2022-11-13T10:33:17.607Z,81
2022-11-13T10:34:17.993Z,80
2022-11-13T10:35:17.561Z,80
2022-11-13T10:36:17.366Z,80
2022-11-13T10:37:17.192Z,80
2022-11-13T10:38:17.504Z,79
2022-11-13T10:39:17.550Z,79
2022-11-13T10:40:17.669Z,79
2022-11-13T10:41:17.751Z,79
2022-11-13T10:42:17.205Z,78
2022-11-13T10:43:17.303Z,78
2022-11-13T10:44:17.542Z,78
2022-11-13T10:45:18.884Z,78
2022-11-13T10:47:26.728Z,78
2022-11-13T10:48:17.494Z,78
2022-11-13T10:49:18.305Z,78
2022-11-13T10:50:17.266Z,77
2022-11-13T10:51:17.818Z,76
2022-11-13T10:52:17.832Z,76
2022-11-13T10:53:17.443Z,76
2022-11-13T10:54:17.696Z,76
2022-11-13T10:55:18.003Z,76
2022-11-13T10:56:17.160Z,76
2022-11-13T10:59:17.615Z,75
2022-11-13T11:00:17.160Z,75
2022-11-13T11:01:18.046Z,75
2022-11-13T11:02:17.038Z,75
2022-11-13T11:03:17.498Z,75
2022-11-13T11:04:17.337Z,75
2022-11-13T11:05:17.499Z,75
2022-11-13T11:06:18.230Z,74
2022-11-13T11:07:27.336Z,74
2022-11-13T11:08:17.794Z,74
2022-11-13T11:09:17.382Z,74
2022-11-13T11:10:17.778Z,74
2022-11-13T11:11:17.736Z,73
2022-11-13T11:12:17.069Z,73
2022-11-13T11:13:17.414Z,73
2022-11-13T11:14:17.878Z,73
2022-11-13T11:15:18.081Z,73
2022-11-13T11:16:17.937Z,73
2022-11-13T11:17:17.858Z,73
2022-11-13T11:18:16.989Z,72
2022-11-13T11:19:17.266Z,72
2022-11-13T11:20:17.779Z,72
2022-11-13T11:22:17.705Z,72
2022-11-13T11:23:17.696Z,72
2022-11-13T11:24:17.738Z,71
2022-11-13T11:25:17.593Z,71
2022-11-13T11:26:17.993Z,71
2022-11-13T11:27:17.335Z,71
2022-11-13T11:28:17.056Z,71
2022-11-13T11:29:17.343Z,71
2022-11-13T11:30:17.833Z,71
2022-11-13T11:31:17.248Z,71
2022-11-13T11:32:17.475Z,70
2022-11-13T11:34:17.725Z,70
2022-11-13T11:35:17.483Z,70
2022-11-13T11:36:17.777Z,70
2022-11-13T11:37:17.246Z,70
2022-11-13T11:38:17.620Z,70
2022-11-13T11:39:17.369Z,70
2022-11-13T11:40:17.643Z,71
2022-11-13T11:41:22.830Z,70
2022-11-13T11:42:17.700Z,71
2022-11-13T11:43:17.059Z,71
2022-11-13T11:44:17.369Z,71
2022-11-13T11:45:17.044Z,70
2022-11-13T11:48:15.979Z,71
2022-11-13T11:49:17.488Z,71
2022-11-13T11:50:17.666Z,71
2022-11-13T11:51:17.944Z,71
2022-11-13T11:52:17.777Z,71
2022-11-13T11:53:17.659Z,71
2022-11-13T11:54:17.969Z,71
2022-11-13T11:55:18.122Z,71
2022-11-13T11:56:17.614Z,72
2022-11-13T11:57:17.175Z,72
2022-11-13T11:58:17.948Z,72
2022-11-13T11:59:16.648Z,72
2022-11-13T12:00:18.049Z,72
2022-11-13T12:01:17.314Z,72
2022-11-13T12:04:17.923Z,72
2022-11-13T12:05:24.741Z,72
2022-11-13T12:06:17.859Z,72
2022-11-13T12:07:17.299Z,72
2022-11-13T12:08:17.570Z,72
2022-11-13T12:09:17.823Z,73
2022-11-13T12:10:17.096Z,73
2022-11-13T12:11:17.181Z,73
2022-11-13T12:12:17.116Z,73
2022-11-13T12:13:17.151Z,73
2022-11-13T12:14:17.461Z,72
2022-11-13T12:15:17.653Z,72
2022-11-13T12:16:17.944Z,72
2022-11-13T12:17:23.218Z,72
2022-11-13T12:18:17.761Z,72
2022-11-13T12:19:18.027Z,72
2022-11-13T12:20:16.587Z,72
2022-11-13T12:21:17.367Z,72
2022-11-13T12:22:16.972Z,73
2022-11-13T12:23:17.390Z,73
2022-11-13T12:24:17.637Z,73
2022-11-13T12:25:17.112Z,73
2022-11-13T12:26:17.810Z,73
2022-11-13T12:27:17.702Z,73
2022-11-13T12:28:18.060Z,73
2022-11-13T12:29:17.272Z,73
2022-11-13T12:30:17.759Z,74
2022-11-13T12:31:17.909Z,74
2022-11-13T12:32:17.163Z,74
2022-11-13T12:33:17.898Z,74
2022-11-13T12:34:17.086Z,74
2022-11-13T12:35:17.457Z,74
2022-11-13T12:36:17.746Z,74
2022-11-13T12:37:17.227Z,74
2022-11-13T12:38:17.246Z,74
2022-11-13T12:39:16.908Z,75
2022-11-13T12:40:16.931Z,75
2022-11-13T12:41:17.649Z,75
2022-11-13T12:44:17.691Z,75
2022-11-13T12:45:17.374Z,75
2022-11-13T12:46:17.386Z,75
2022-11-13T12:49:17.194Z,75
2022-11-13T12:50:17.592Z,75
2022-11-13T12:51:17.918Z,75
2022-11-13T12:52:18.000Z,75
2022-11-13T12:53:17.496Z,75
2022-11-13T12:54:17.677Z,75
2022-11-13T12:55:17.883Z,75
2022-11-13T12:56:17.382Z,76
2022-11-13T12:57:17.420Z,76
2022-11-13T12:58:17.716Z,76
2022-11-13T12:59:36.912Z,76
2022-11-13T13:00:17.945Z,76
2022-11-13T13:01:17.882Z,76
2022-11-13T13:02:17.903Z,76
2022-11-13T13:03:17.205Z,76
2022-11-13T13:04:17.513Z,76
2022-11-13T13:05:16.378Z,76
2022-11-13T13:08:17.017Z,77
2022-11-13T13:10:16.590Z,77
2022-11-13T13:11:17.556Z,76
2022-11-13T13:12:17.915Z,77
2022-11-13T13:13:24.576Z,77
2022-11-13T13:14:17.447Z,77
2022-11-13T13:15:17.741Z,77
2022-11-13T13:16:17.711Z,77
2022-11-13T13:17:17.322Z,77
2022-11-13T13:18:17.720Z,77
2022-11-13T13:19:17.028Z,77
2022-11-13T13:20:17.348Z,77
2022-11-13T13:22:17.585Z,77
2022-11-13T13:23:17.963Z,77
2022-11-13T13:24:17.157Z,77
2022-11-13T13:25:20.887Z,77
2022-11-13T13:26:17.820Z,77
2022-11-13T13:27:17.157Z,77
2022-11-13T13:28:17.145Z,77
2022-11-13T13:30:17.467Z,78
2022-11-13T13:31:16.960Z,78
2022-11-13T13:33:17.951Z,78
2022-11-13T13:34:17.739Z,78
2022-11-13T13:36:17.897Z,78
2022-11-13T13:37:17.427Z,78
2022-11-13T13:39:17.172Z,78
2022-11-13T13:40:17.786Z,78
2022-11-13T13:41:17.381Z,78
2022-11-13T13:42:17.660Z,78
2022-11-13T13:43:18.009Z,78
2022-11-13T13:44:17.172Z,78
2022-11-13T13:45:24.914Z,78
2022-11-13T13:46:17.582Z,78
2022-11-13T13:47:18.101Z,78
2022-11-13T13:48:17.368Z,78
2022-11-13T13:49:17.623Z,78
2022-11-13T13:50:17.066Z,77
2022-11-13T13:51:17.385Z,77
2022-11-13T13:52:17.807Z,77
2022-11-13T13:54:16.984Z,77
2022-11-13T13:55:17.058Z,77
2022-11-13T13:56:16.725Z,77
2022-11-13T13:57:16.418Z,77
2022-11-13T13:58:17.659Z,77
2022-11-13T13:59:17.856Z,77
2022-11-13T14:00:17.410Z,77
2022-11-13T14:01:25.572Z,77
2022-11-13T14:02:17.390Z,77
2022-11-13T14:03:17.976Z,77
2022-11-13T14:04:17.224Z,77
2022-11-13T14:05:17.244Z,77
2022-11-13T14:06:17.831Z,77
2022-11-13T14:07:17.804Z,77
2022-11-13T14:08:17.395Z,76
2022-11-13T14:09:18.384Z,76
2022-11-13T14:10:17.196Z,76
2022-11-13T14:11:17.661Z,76
2022-11-13T14:12:17.059Z,76
2022-11-13T14:13:17.845Z,76
2022-11-13T14:14:17.755Z,76
2022-11-13T14:15:18.083Z,76
2022-11-13T14:17:17.762Z,76
2022-11-13T14:18:17.593Z,76
2022-11-13T14:19:18.338Z,76
2022-11-13T14:20:17.192Z,76
2022-11-13T14:21:17.651Z,76
2022-11-13T14:22:16.125Z,75
2022-11-13T14:23:17.811Z,75
2022-11-13T14:24:17.210Z,75
2022-11-13T14:25:17.517Z,75
2022-11-13T14:26:17.602Z,75
2022-11-13T14:27:17.490Z,75
2022-11-13T14:29:17.716Z,75
2022-11-13T14:30:17.789Z,75
2022-11-13T14:31:17.077Z,75
2022-11-13T14:32:17.632Z,75
2022-11-13T14:33:17.808Z,75
2022-11-13T14:34:17.045Z,75
2022-11-13T14:35:17.524Z,75
2022-11-13T14:36:17.929Z,75
2022-11-13T14:37:17.167Z,75
2022-11-13T14:38:17.419Z,74
2022-11-13T14:39:17.770Z,74
2022-11-13T14:40:17.148Z,74
2022-11-13T14:41:17.536Z,74
2022-11-13T14:42:17.856Z,74
2022-11-13T14:43:17.301Z,74
2022-11-13T14:44:17.498Z,74
2022-11-13T14:45:17.406Z,74
2022-11-13T14:46:17.205Z,74
2022-11-13T14:47:17.756Z,74
2022-11-13T14:48:17.269Z,73
2022-11-13T14:49:17.642Z,74
2022-11-13T14:50:17.839Z,74
2022-11-13T14:51:17.970Z,73
2022-11-13T14:52:17.733Z,73
2022-11-13T14:53:17.821Z,73
2022-11-13T14:54:17.112Z,73
2022-11-13T14:56:17.570Z,73
2022-11-13T14:57:17.688Z,73
2022-11-13T14:58:17.702Z,73
2022-11-13T14:59:24.586Z,73
2022-11-13T15:00:17.736Z,73
2022-11-13T15:01:18.090Z,73
2022-11-13T15:02:17.761Z,73
2022-11-13T15:03:17.342Z,73
2022-11-13T15:04:18.211Z,73
2022-11-13T15:05:18.050Z,73
2022-11-13T15:06:17.703Z,73
2022-11-13T15:07:17.975Z,73
2022-11-13T15:08:17.621Z,73
2022-11-13T15:09:18.258Z,73
2022-11-13T15:10:17.610Z,73
2022-11-13T15:11:17.494Z,73
2022-11-13T15:12:16.942Z,73
2022-11-13T15:13:17.143Z,73
2022-11-13T15:14:17.755Z,73
2022-11-13T15:15:17.738Z,73
2022-11-13T15:17:17.749Z,73
2022-11-13T15:18:18.156Z,73
2022-11-13T15:19:17.310Z,73
2022-11-13T15:20:17.574Z,73
2022-11-13T15:21:18.180Z,73
2022-11-13T15:22:34.705Z,73
2022-11-13T15:25:17.095Z,73
2022-11-13T15:26:17.027Z,73
2022-11-13T15:28:17.670Z,73
2022-11-13T15:29:18.307Z,73
2022-11-13T15:30:17.668Z,73
2022-11-13T15:31:17.432Z,73
2022-11-13T15:32:17.664Z,73
2022-11-13T15:33:17.929Z,73
2022-11-13T15:34:17.070Z,73
2022-11-13T15:35:16.643Z,73
2022-11-13T15:36:17.785Z,73
2022-11-13T15:37:17.920Z,73
2022-11-13T15:38:18.139Z,73
2022-11-13T15:39:27.834Z,73
2022-11-13T15:40:17.623Z,73
2022-11-13T15:41:17.640Z,73
2022-11-13T15:42:17.680Z,73
2022-11-13T15:43:17.586Z,73
2022-11-13T15:44:17.603Z,74